sensor_id;sensor_type;location;lat;lon;timestamp;P1;durP1;ratioP1;P2;durP2;ratioP2
68993;SDS011;56054;50.968;5.816;2022-07-03T00:03:12;4.13;;;1.20;;
68993;SDS011;56054;50.968;5.816;2022-07-03T00:06:38;3.30;;;1.30;;
68993;SDS011;56054;50.968;5.816;2022-07-03T00:09:45;6.45;;;1.35;;
68993;SDS011;56054;50.968;5.816;2022-07-03T00:12:52;5.53;;;1.38;;
68993;SDS011;56054;50.968;5.816;2022-07-03T00:15:59;2.78;;;1.23;;
68993;SDS011;56054;50.968;5.816;2022-07-03T00:19:06;1.98;;;1.13;;
68993;SDS011;56054;50.968;5.816;2022-07-03T00:22:14;2.72;;;1.30;;
68993;SDS011;56054;50.968;5.816;2022-07-03T00:25:21;2.70;;;1.20;;
68993;SDS011;56054;50.968;5.816;2022-07-03T00:28:28;2.35;;;1.23;;
68993;SDS011;56054;50.968;5.816;2022-07-03T00:31:38;4.55;;;1.65;;
68993;SDS011;56054;50.968;5.816;2022-07-03T00:38:31;14.05;;;1.80;;
68993;SDS011;56054;50.968;5.816;2022-07-03T00:41:39;3.05;;;1.45;;
68993;SDS011;56054;50.968;5.816;2022-07-03T00:47:55;7.60;;;2.47;;
68993;SDS011;56054;50.968;5.816;2022-07-03T00:51:02;3.92;;;1.27;;
68993;SDS011;56054;50.968;5.816;2022-07-03T00:54:39;2.17;;;1.38;;
68993;SDS011;56054;50.968;5.816;2022-07-03T00:57:50;2.65;;;1.10;;
68993;SDS011;56054;50.968;5.816;2022-07-03T01:00:58;4.45;;;1.55;;
68993;SDS011;56054;50.968;5.816;2022-07-03T01:07:47;1.80;;;1.10;;
68993;SDS011;56054;50.968;5.816;2022-07-03T01:28:31;1.33;;;0.93;;
68993;SDS011;56054;50.968;5.816;2022-07-03T01:31:39;6.88;;;1.73;;
68993;SDS011;56054;50.968;5.816;2022-07-03T01:34:51;5.75;;;1.30;;
68993;SDS011;56054;50.968;5.816;2022-07-03T01:38:10;2.90;;;1.00;;
68993;SDS011;56054;50.968;5.816;2022-07-03T01:41:23;3.00;;;1.15;;
68993;SDS011;56054;50.968;5.816;2022-07-03T01:44:32;2.08;;;1.20;;
68993;SDS011;56054;50.968;5.816;2022-07-03T01:47:42;6.70;;;1.52;;
68993;SDS011;56054;50.968;5.816;2022-07-03T01:51:04;1.92;;;1.00;;
68993;SDS011;56054;50.968;5.816;2022-07-03T01:54:16;2.88;;;1.40;;
68993;SDS011;56054;50.968;5.816;2022-07-03T01:57:24;5.03;;;1.35;;
68993;SDS011;56054;50.968;5.816;2022-07-03T02:13:24;4.13;;;1.40;;
68993;SDS011;56054;50.968;5.816;2022-07-03T02:17:29;5.35;;;1.50;;
68993;SDS011;56054;50.968;5.816;2022-07-03T02:21:15;2.03;;;1.20;;
68993;SDS011;56054;50.968;5.816;2022-07-03T02:24:28;5.13;;;1.75;;
68993;SDS011;56054;50.968;5.816;2022-07-03T02:28:02;7.65;;;2.33;;
68993;SDS011;56054;50.968;5.816;2022-07-03T02:31:43;3.20;;;1.63;;
68993;SDS011;56054;50.968;5.816;2022-07-03T02:35:07;5.35;;;1.60;;
68993;SDS011;56054;50.968;5.816;2022-07-03T02:38:18;6.13;;;1.73;;
68993;SDS011;56054;50.968;5.816;2022-07-03T02:45:08;6.40;;;1.63;;
68993;SDS011;56054;50.968;5.816;2022-07-03T02:48:36;4.95;;;1.52;;
68993;SDS011;56054;50.968;5.816;2022-07-03T02:51:51;3.97;;;1.63;;
68993;SDS011;56054;50.968;5.816;2022-07-03T03:01:50;6.30;;;1.85;;
68993;SDS011;56054;50.968;5.816;2022-07-03T03:05:15;2.50;;;1.63;;
68993;SDS011;56054;50.968;5.816;2022-07-03T03:11:48;4.07;;;1.88;;
68993;SDS011;56054;50.968;5.816;2022-07-03T03:14:58;5.50;;;1.77;;
68993;SDS011;56054;50.968;5.816;2022-07-03T03:18:10;8.05;;;2.38;;
68993;SDS011;56054;50.968;5.816;2022-07-03T03:22:07;2.92;;;1.85;;
68993;SDS011;56054;50.968;5.816;2022-07-03T03:25:34;3.40;;;1.98;;
68993;SDS011;56054;50.968;5.816;2022-07-03T03:28:42;8.00;;;2.00;;
68993;SDS011;56054;50.968;5.816;2022-07-03T03:31:49;6.93;;;2.13;;
68993;SDS011;56054;50.968;5.816;2022-07-03T03:34:56;3.88;;;1.35;;
68993;SDS011;56054;50.968;5.816;2022-07-03T03:38:03;2.60;;;1.50;;
68993;SDS011;56054;50.968;5.816;2022-07-03T03:41:15;5.00;;;2.20;;
68993;SDS011;56054;50.968;5.816;2022-07-03T03:44:29;4.60;;;1.48;;
68993;SDS011;56054;50.968;5.816;2022-07-03T03:47:36;5.95;;;1.60;;
68993;SDS011;56054;50.968;5.816;2022-07-03T03:50:43;3.00;;;1.40;;
68993;SDS011;56054;50.968;5.816;2022-07-03T03:53:50;3.63;;;1.50;;
68993;SDS011;56054;50.968;5.816;2022-07-03T03:57:05;2.78;;;1.27;;
68993;SDS011;56054;50.968;5.816;2022-07-03T04:00:25;4.45;;;1.40;;
68993;SDS011;56054;50.968;5.816;2022-07-03T04:03:32;2.80;;;1.10;;
68993;SDS011;56054;50.968;5.816;2022-07-03T04:06:40;3.83;;;1.25;;
68993;SDS011;56054;50.968;5.816;2022-07-03T04:09:49;3.13;;;1.20;;
68993;SDS011;56054;50.968;5.816;2022-07-03T04:12:56;6.70;;;1.52;;
68993;SDS011;56054;50.968;5.816;2022-07-03T04:16:03;6.60;;;1.88;;
68993;SDS011;56054;50.968;5.816;2022-07-03T04:19:10;2.67;;;1.27;;
68993;SDS011;56054;50.968;5.816;2022-07-03T04:22:17;2.20;;;1.20;;
68993;SDS011;56054;50.968;5.816;2022-07-03T04:25:24;2.67;;;1.40;;
68993;SDS011;56054;50.968;5.816;2022-07-03T04:28:31;4.18;;;1.25;;
68993;SDS011;56054;50.968;5.816;2022-07-03T04:31:38;2.55;;;1.42;;
68993;SDS011;56054;50.968;5.816;2022-07-03T04:34:45;5.90;;;1.65;;
68993;SDS011;56054;50.968;5.816;2022-07-03T04:37:52;5.28;;;1.60;;
68993;SDS011;56054;50.968;5.816;2022-07-03T04:40:59;2.92;;;1.58;;
68993;SDS011;56054;50.968;5.816;2022-07-03T04:44:18;9.52;;;1.65;;
68993;SDS011;56054;50.968;5.816;2022-07-03T04:47:25;5.25;;;2.15;;
68993;SDS011;56054;50.968;5.816;2022-07-03T04:50:35;5.20;;;1.90;;
68993;SDS011;56054;50.968;5.816;2022-07-03T04:53:42;4.57;;;1.52;;
68993;SDS011;56054;50.968;5.816;2022-07-03T04:56:49;5.72;;;1.98;;
68993;SDS011;56054;50.968;5.816;2022-07-03T04:59:57;11.90;;;2.03;;
68993;SDS011;56054;50.968;5.816;2022-07-03T05:03:06;8.77;;;1.70;;
68993;SDS011;56054;50.968;5.816;2022-07-03T05:06:13;5.80;;;1.70;;
68993;SDS011;56054;50.968;5.816;2022-07-03T05:09:20;2.28;;;1.60;;
68993;SDS011;56054;50.968;5.816;2022-07-03T05:12:27;6.90;;;1.58;;
68993;SDS011;56054;50.968;5.816;2022-07-03T05:15:34;5.28;;;1.73;;
68993;SDS011;56054;50.968;5.816;2022-07-03T05:18:41;13.45;;;2.90;;
68993;SDS011;56054;50.968;5.816;2022-07-03T05:21:48;7.80;;;2.47;;
68993;SDS011;56054;50.968;5.816;2022-07-03T05:24:56;9.88;;;3.63;;
68993;SDS011;56054;50.968;5.816;2022-07-03T05:28:03;6.18;;;3.08;;
68993;SDS011;56054;50.968;5.816;2022-07-03T05:31:21;8.40;;;3.60;;
68993;SDS011;56054;50.968;5.816;2022-07-03T05:34:32;6.53;;;3.17;;
68993;SDS011;56054;50.968;5.816;2022-07-03T05:37:48;5.32;;;2.90;;
68993;SDS011;56054;50.968;5.816;2022-07-03T05:40:56;6.97;;;2.58;;
68993;SDS011;56054;50.968;5.816;2022-07-03T05:44:03;5.72;;;2.55;;
68993;SDS011;56054;50.968;5.816;2022-07-03T05:47:11;5.20;;;2.35;;
68993;SDS011;56054;50.968;5.816;2022-07-03T05:50:18;8.10;;;4.30;;
68993;SDS011;56054;50.968;5.816;2022-07-03T05:53:25;4.03;;;2.13;;
68993;SDS011;56054;50.968;5.816;2022-07-03T05:56:32;4.45;;;2.72;;
68993;SDS011;56054;50.968;5.816;2022-07-03T05:59:42;6.15;;;2.53;;
68993;SDS011;56054;50.968;5.816;2022-07-03T06:03:06;7.25;;;2.28;;
68993;SDS011;56054;50.968;5.816;2022-07-03T06:06:17;6.50;;;2.58;;
68993;SDS011;56054;50.968;5.816;2022-07-03T06:09:27;15.43;;;3.20;;
68993;SDS011;56054;50.968;5.816;2022-07-03T06:12:34;4.75;;;2.45;;
68993;SDS011;56054;50.968;5.816;2022-07-03T06:15:41;5.15;;;2.42;;
68993;SDS011;56054;50.968;5.816;2022-07-03T06:18:48;6.57;;;2.05;;
68993;SDS011;56054;50.968;5.816;2022-07-03T06:21:58;3.50;;;1.95;;
68993;SDS011;56054;50.968;5.816;2022-07-03T06:25:05;3.38;;;2.20;;
68993;SDS011;56054;50.968;5.816;2022-07-03T06:28:13;5.63;;;1.75;;
68993;SDS011;56054;50.968;5.816;2022-07-03T06:31:34;3.63;;;1.58;;
68993;SDS011;56054;50.968;5.816;2022-07-03T06:34:42;7.20;;;2.05;;
68993;SDS011;56054;50.968;5.816;2022-07-03T06:38:04;5.43;;;1.65;;
68993;SDS011;56054;50.968;5.816;2022-07-03T06:41:11;4.35;;;1.92;;
68993;SDS011;56054;50.968;5.816;2022-07-03T06:44:21;5.60;;;1.40;;
68993;SDS011;56054;50.968;5.816;2022-07-03T06:47:38;3.88;;;1.55;;
68993;SDS011;56054;50.968;5.816;2022-07-03T06:50:50;3.63;;;1.45;;
68993;SDS011;56054;50.968;5.816;2022-07-03T06:53:57;12.48;;;1.70;;
68993;SDS011;56054;50.968;5.816;2022-07-03T06:57:04;3.67;;;1.40;;
68993;SDS011;56054;50.968;5.816;2022-07-03T07:00:17;1.70;;;1.13;;
68993;SDS011;56054;50.968;5.816;2022-07-03T07:03:32;3.00;;;0.90;;
68993;SDS011;56054;50.968;5.816;2022-07-03T07:06:39;4.97;;;1.58;;
68993;SDS011;56054;50.968;5.816;2022-07-03T07:09:52;5.45;;;1.30;;
68993;SDS011;56054;50.968;5.816;2022-07-03T07:12:59;2.55;;;1.23;;
68993;SDS011;56054;50.968;5.816;2022-07-03T07:16:06;5.22;;;1.42;;
68993;SDS011;56054;50.968;5.816;2022-07-03T07:19:13;3.55;;;1.17;;
68993;SDS011;56054;50.968;5.816;2022-07-03T07:22:24;2.55;;;1.30;;
68993;SDS011;56054;50.968;5.816;2022-07-03T07:26:01;3.83;;;1.30;;
68993;SDS011;56054;50.968;5.816;2022-07-03T07:29:15;6.95;;;1.23;;
68993;SDS011;56054;50.968;5.816;2022-07-03T07:32:26;4.00;;;1.30;;
68993;SDS011;56054;50.968;5.816;2022-07-03T07:39:02;3.50;;;1.13;;
68993;SDS011;56054;50.968;5.816;2022-07-03T07:42:09;1.75;;;0.85;;
68993;SDS011;56054;50.968;5.816;2022-07-03T07:45:26;2.05;;;0.80;;
68993;SDS011;56054;50.968;5.816;2022-07-03T07:52:34;1.92;;;0.80;;
68993;SDS011;56054;50.968;5.816;2022-07-03T07:55:43;6.22;;;0.90;;
68993;SDS011;56054;50.968;5.816;2022-07-03T07:58:54;3.25;;;1.00;;
68993;SDS011;56054;50.968;5.816;2022-07-03T08:02:02;1.27;;;0.60;;
68993;SDS011;56054;50.968;5.816;2022-07-03T08:05:13;3.15;;;1.13;;
68993;SDS011;56054;50.968;5.816;2022-07-03T08:08:20;1.20;;;0.60;;
68993;SDS011;56054;50.968;5.816;2022-07-03T08:11:28;1.50;;;0.60;;
68993;SDS011;56054;50.968;5.816;2022-07-03T08:14:50;3.90;;;0.73;;
68993;SDS011;56054;50.968;5.816;2022-07-03T08:17:59;2.47;;;0.70;;
68993;SDS011;56054;50.968;5.816;2022-07-03T08:21:19;4.25;;;0.80;;
68993;SDS011;56054;50.968;5.816;2022-07-03T08:24:35;2.03;;;0.70;;
68993;SDS011;56054;50.968;5.816;2022-07-03T08:27:44;3.13;;;0.60;;
68993;SDS011;56054;50.968;5.816;2022-07-03T08:30:56;2.05;;;0.82;;
68993;SDS011;56054;50.968;5.816;2022-07-03T08:34:03;0.57;;;0.50;;
68993;SDS011;56054;50.968;5.816;2022-07-03T08:37:20;2.00;;;0.65;;
68993;SDS011;56054;50.968;5.816;2022-07-03T08:40:44;2.55;;;0.80;;
68993;SDS011;56054;50.968;5.816;2022-07-03T08:44:35;2.75;;;0.70;;
68993;SDS011;56054;50.968;5.816;2022-07-03T08:47:47;3.80;;;0.82;;
68993;SDS011;56054;50.968;5.816;2022-07-03T08:51:05;1.67;;;0.70;;
68993;SDS011;56054;50.968;5.816;2022-07-03T08:54:12;3.03;;;0.70;;
68993;SDS011;56054;50.968;5.816;2022-07-03T08:57:54;1.48;;;0.60;;
68993;SDS011;56054;50.968;5.816;2022-07-03T09:01:10;5.25;;;1.90;;
68993;SDS011;56054;50.968;5.816;2022-07-03T09:04:21;1.73;;;0.60;;
68993;SDS011;56054;50.968;5.816;2022-07-03T09:07:30;2.35;;;0.95;;
68993;SDS011;56054;50.968;5.816;2022-07-03T09:10:47;2.05;;;0.75;;
68993;SDS011;56054;50.968;5.816;2022-07-03T09:14:13;0.80;;;0.50;;
68993;SDS011;56054;50.968;5.816;2022-07-03T09:17:31;2.67;;;0.90;;
68993;SDS011;56054;50.968;5.816;2022-07-03T09:20:40;0.70;;;0.50;;
68993;SDS011;56054;50.968;5.816;2022-07-03T09:23:54;2.88;;;0.68;;
68993;SDS011;56054;50.968;5.816;2022-07-03T09:27:19;2.72;;;0.70;;
68993;SDS011;56054;50.968;5.816;2022-07-03T09:30:30;0.68;;;0.40;;
68993;SDS011;56054;50.968;5.816;2022-07-03T09:37:14;1.98;;;0.85;;
68993;SDS011;56054;50.968;5.816;2022-07-03T09:43:57;4.68;;;0.68;;
68993;SDS011;56054;50.968;5.816;2022-07-03T09:47:25;0.73;;;0.40;;
68993;SDS011;56054;50.968;5.816;2022-07-03T09:50:41;1.70;;;0.75;;
68993;SDS011;56054;50.968;5.816;2022-07-03T09:53:50;0.80;;;0.40;;
68993;SDS011;56054;50.968;5.816;2022-07-03T10:05:10;2.10;;;1.02;;
68993;SDS011;56054;50.968;5.816;2022-07-03T10:08:55;3.33;;;0.63;;
68993;SDS011;56054;50.968;5.816;2022-07-03T10:12:03;1.60;;;0.60;;
68993;SDS011;56054;50.968;5.816;2022-07-03T10:15:13;2.65;;;0.70;;
68993;SDS011;56054;50.968;5.816;2022-07-03T10:18:41;2.13;;;0.60;;
68993;SDS011;56054;50.968;5.816;2022-07-03T10:22:17;1.55;;;0.50;;
68993;SDS011;56054;50.968;5.816;2022-07-03T10:25:33;1.70;;;0.50;;
68993;SDS011;56054;50.968;5.816;2022-07-03T10:28:57;2.28;;;0.40;;
68993;SDS011;56054;50.968;5.816;2022-07-03T10:36:16;2.58;;;0.60;;
68993;SDS011;56054;50.968;5.816;2022-07-03T10:43:09;3.72;;;0.80;;
68993;SDS011;56054;50.968;5.816;2022-07-03T10:46:32;1.80;;;0.55;;
68993;SDS011;56054;50.968;5.816;2022-07-03T10:53:47;0.77;;;0.30;;
68993;SDS011;56054;50.968;5.816;2022-07-03T10:57:35;1.55;;;0.57;;
68993;SDS011;56054;50.968;5.816;2022-07-03T11:01:09;0.95;;;0.40;;
68993;SDS011;56054;50.968;5.816;2022-07-03T11:04:16;1.52;;;0.50;;
68993;SDS011;56054;50.968;5.816;2022-07-03T11:10:37;0.90;;;0.40;;
68993;SDS011;56054;50.968;5.816;2022-07-03T11:17:27;1.40;;;0.70;;
68993;SDS011;56054;50.968;5.816;2022-07-03T11:27:19;4.75;;;0.70;;
68993;SDS011;56054;50.968;5.816;2022-07-03T11:34:43;1.17;;;0.40;;
68993;SDS011;56054;50.968;5.816;2022-07-03T11:38:08;1.20;;;0.50;;
68993;SDS011;56054;50.968;5.816;2022-07-03T11:41:22;2.63;;;0.40;;
68993;SDS011;56054;50.968;5.816;2022-07-03T11:44:35;0.70;;;0.30;;
68993;SDS011;56054;50.968;5.816;2022-07-03T11:47:43;1.92;;;0.50;;
68993;SDS011;56054;50.968;5.816;2022-07-03T11:51:01;2.33;;;0.60;;
68993;SDS011;56054;50.968;5.816;2022-07-03T11:54:12;1.42;;;0.40;;
68993;SDS011;56054;50.968;5.816;2022-07-03T11:57:28;0.95;;;0.40;;
68993;SDS011;56054;50.968;5.816;2022-07-03T12:00:57;1.00;;;0.60;;
68993;SDS011;56054;50.968;5.816;2022-07-03T12:04:08;1.77;;;0.50;;
68993;SDS011;56054;50.968;5.816;2022-07-03T12:07:17;1.75;;;0.55;;
68993;SDS011;56054;50.968;5.816;2022-07-03T12:10:35;1.92;;;0.50;;
68993;SDS011;56054;50.968;5.816;2022-07-03T12:13:53;2.35;;;0.77;;
68993;SDS011;56054;50.968;5.816;2022-07-03T12:17:04;1.70;;;0.50;;
68993;SDS011;56054;50.968;5.816;2022-07-03T12:20:37;1.50;;;0.40;;
68993;SDS011;56054;50.968;5.816;2022-07-03T12:24:13;2.47;;;0.70;;
68993;SDS011;56054;50.968;5.816;2022-07-03T12:27:21;1.77;;;0.60;;
68993;SDS011;56054;50.968;5.816;2022-07-03T12:30:28;0.68;;;0.50;;
68993;SDS011;56054;50.968;5.816;2022-07-03T12:33:43;2.05;;;0.50;;
68993;SDS011;56054;50.968;5.816;2022-07-03T12:37:02;1.27;;;0.50;;
68993;SDS011;56054;50.968;5.816;2022-07-03T12:40:13;2.83;;;0.50;;
68993;SDS011;56054;50.968;5.816;2022-07-03T12:43:45;1.67;;;0.50;;
68993;SDS011;56054;50.968;5.816;2022-07-03T12:47:00;3.30;;;0.50;;
68993;SDS011;56054;50.968;5.816;2022-07-03T12:50:43;4.32;;;0.50;;
68993;SDS011;56054;50.968;5.816;2022-07-03T12:53:55;1.48;;;0.25;;
68993;SDS011;56054;50.968;5.816;2022-07-03T12:57:19;2.65;;;0.73;;
68993;SDS011;56054;50.968;5.816;2022-07-03T13:01:03;5.75;;;0.80;;
68993;SDS011;56054;50.968;5.816;2022-07-03T13:04:54;3.00;;;0.85;;
68993;SDS011;56054;50.968;5.816;2022-07-03T13:08:35;2.38;;;0.50;;
68993;SDS011;56054;50.968;5.816;2022-07-03T13:11:49;2.05;;;0.50;;
68993;SDS011;56054;50.968;5.816;2022-07-03T13:14:58;1.95;;;0.68;;
68993;SDS011;56054;50.968;5.816;2022-07-03T13:18:07;1.08;;;0.52;;
68993;SDS011;56054;50.968;5.816;2022-07-03T13:21:19;3.05;;;0.77;;
68993;SDS011;56054;50.968;5.816;2022-07-03T13:28:13;3.10;;;0.60;;
68993;SDS011;56054;50.968;5.816;2022-07-03T13:31:37;2.85;;;0.68;;
68993;SDS011;56054;50.968;5.816;2022-07-03T13:34:56;2.75;;;0.70;;
68993;SDS011;56054;50.968;5.816;2022-07-03T13:38:03;2.17;;;0.50;;
68993;SDS011;56054;50.968;5.816;2022-07-03T13:41:29;2.22;;;0.60;;
68993;SDS011;56054;50.968;5.816;2022-07-03T13:44:39;2.55;;;0.68;;
68993;SDS011;56054;50.968;5.816;2022-07-03T13:47:50;2.50;;;0.85;;
68993;SDS011;56054;50.968;5.816;2022-07-03T13:51:15;2.55;;;0.50;;
68993;SDS011;56054;50.968;5.816;2022-07-03T13:54:22;2.53;;;0.52;;
68993;SDS011;56054;50.968;5.816;2022-07-03T13:57:29;3.30;;;0.85;;
68993;SDS011;56054;50.968;5.816;2022-07-03T14:00:59;3.45;;;0.77;;
68993;SDS011;56054;50.968;5.816;2022-07-03T14:04:07;3.75;;;0.68;;
68993;SDS011;56054;50.968;5.816;2022-07-03T14:07:14;2.58;;;0.45;;
68993;SDS011;56054;50.968;5.816;2022-07-03T14:10:39;2.95;;;0.80;;
68993;SDS011;56054;50.968;5.816;2022-07-03T14:13:50;3.70;;;0.93;;
68993;SDS011;56054;50.968;5.816;2022-07-03T14:17:22;0.65;;;0.43;;
68993;SDS011;56054;50.968;5.816;2022-07-03T14:20:55;5.38;;;0.43;;
68993;SDS011;56054;50.968;5.816;2022-07-03T14:24:17;8.23;;;0.50;;
68993;SDS011;56054;50.968;5.816;2022-07-03T14:27:25;3.15;;;0.60;;
68993;SDS011;56054;50.968;5.816;2022-07-03T14:30:32;2.10;;;0.60;;
68993;SDS011;56054;50.968;5.816;2022-07-03T14:33:39;2.45;;;0.63;;
68993;SDS011;56054;50.968;5.816;2022-07-03T14:36:54;3.10;;;0.50;;
68993;SDS011;56054;50.968;5.816;2022-07-03T14:40:05;1.67;;;0.55;;
68993;SDS011;56054;50.968;5.816;2022-07-03T14:43:21;2.50;;;0.60;;
68993;SDS011;56054;50.968;5.816;2022-07-03T14:46:29;1.10;;;0.55;;
68993;SDS011;56054;50.968;5.816;2022-07-03T14:49:43;0.47;;;0.40;;
68993;SDS011;56054;50.968;5.816;2022-07-03T14:52:51;1.50;;;0.45;;
68993;SDS011;56054;50.968;5.816;2022-07-03T14:56:05;0.80;;;0.60;;
68993;SDS011;56054;50.968;5.816;2022-07-03T15:03:06;2.38;;;0.50;;
68993;SDS011;56054;50.968;5.816;2022-07-03T15:06:15;2.63;;;0.57;;
68993;SDS011;56054;50.968;5.816;2022-07-03T15:09:28;3.08;;;0.77;;
68993;SDS011;56054;50.968;5.816;2022-07-03T15:12:50;3.33;;;0.50;;
68993;SDS011;56054;50.968;5.816;2022-07-03T15:16:01;1.55;;;0.40;;
68993;SDS011;56054;50.968;5.816;2022-07-03T15:19:40;1.00;;;0.50;;
68993;SDS011;56054;50.968;5.816;2022-07-03T15:27:11;3.03;;;0.60;;
68993;SDS011;56054;50.968;5.816;2022-07-03T15:30:46;4.45;;;0.50;;
68993;SDS011;56054;50.968;5.816;2022-07-03T15:34:54;0.77;;;0.22;;
68993;SDS011;56054;50.968;5.816;2022-07-03T15:46:08;2.10;;;0.50;;
68993;SDS011;56054;50.968;5.816;2022-07-03T15:49:46;2.70;;;0.60;;
68993;SDS011;56054;50.968;5.816;2022-07-03T15:56:36;1.52;;;0.32;;
68993;SDS011;56054;50.968;5.816;2022-07-03T16:00:10;4.03;;;0.45;;
68993;SDS011;56054;50.968;5.816;2022-07-03T16:03:34;1.48;;;0.50;;
68993;SDS011;56054;50.968;5.816;2022-07-03T16:06:53;0.40;;;0.25;;
68993;SDS011;56054;50.968;5.816;2022-07-03T16:10:26;1.35;;;0.30;;
68993;SDS011;56054;50.968;5.816;2022-07-03T16:13:46;2.67;;;0.30;;
68993;SDS011;56054;50.968;5.816;2022-07-03T16:17:27;4.10;;;0.47;;
68993;SDS011;56054;50.968;5.816;2022-07-03T16:20:39;0.98;;;0.32;;
68993;SDS011;56054;50.968;5.816;2022-07-03T16:24:02;3.42;;;0.63;;
68993;SDS011;56054;50.968;5.816;2022-07-03T16:27:14;2.90;;;0.40;;
68993;SDS011;56054;50.968;5.816;2022-07-03T16:30:23;3.72;;;0.47;;
68993;SDS011;56054;50.968;5.816;2022-07-03T16:33:32;1.38;;;0.40;;
68993;SDS011;56054;50.968;5.816;2022-07-03T16:36:58;2.78;;;0.50;;
68993;SDS011;56054;50.968;5.816;2022-07-03T16:40:15;1.80;;;0.35;;
68993;SDS011;56054;50.968;5.816;2022-07-03T16:44:02;1.92;;;0.40;;
68993;SDS011;56054;50.968;5.816;2022-07-03T16:47:12;2.60;;;0.50;;
68993;SDS011;56054;50.968;5.816;2022-07-03T16:50:20;1.88;;;0.47;;
68993;SDS011;56054;50.968;5.816;2022-07-03T16:53:36;1.52;;;0.40;;
68993;SDS011;56054;50.968;5.816;2022-07-03T16:57:15;3.85;;;0.57;;
68993;SDS011;56054;50.968;5.816;2022-07-03T17:00:24;1.85;;;0.50;;
68993;SDS011;56054;50.968;5.816;2022-07-03T17:03:44;1.58;;;0.40;;
68993;SDS011;56054;50.968;5.816;2022-07-03T17:07:08;3.75;;;0.80;;
68993;SDS011;56054;50.968;5.816;2022-07-03T17:10:16;1.23;;;0.50;;
68993;SDS011;56054;50.968;5.816;2022-07-03T17:13:32;1.92;;;0.75;;
68993;SDS011;56054;50.968;5.816;2022-07-03T17:16:49;2.95;;;1.33;;
68993;SDS011;56054;50.968;5.816;2022-07-03T17:20:21;1.63;;;0.40;;
68993;SDS011;56054;50.968;5.816;2022-07-03T17:23:48;3.25;;;0.40;;
68993;SDS011;56054;50.968;5.816;2022-07-03T17:27:03;1.88;;;0.60;;
68993;SDS011;56054;50.968;5.816;2022-07-03T17:30:36;2.13;;;0.73;;
68993;SDS011;56054;50.968;5.816;2022-07-03T17:33:51;3.72;;;0.80;;
68993;SDS011;56054;50.968;5.816;2022-07-03T17:37:27;5.75;;;1.25;;
68993;SDS011;56054;50.968;5.816;2022-07-03T17:40:43;2.33;;;0.47;;
68993;SDS011;56054;50.968;5.816;2022-07-03T17:44:24;4.53;;;0.77;;
68993;SDS011;56054;50.968;5.816;2022-07-03T17:47:45;4.38;;;0.95;;
68993;SDS011;56054;50.968;5.816;2022-07-03T17:54:53;3.65;;;0.90;;
68993;SDS011;56054;50.968;5.816;2022-07-03T17:58:58;2.47;;;0.95;;
68993;SDS011;56054;50.968;5.816;2022-07-03T18:06:19;8.70;;;3.58;;
68993;SDS011;56054;50.968;5.816;2022-07-03T18:09:30;31.08;;;14.00;;
68993;SDS011;56054;50.968;5.816;2022-07-03T18:12:54;10.93;;;4.68;;
68993;SDS011;56054;50.968;5.816;2022-07-03T18:16:46;4.85;;;1.60;;
68993;SDS011;56054;50.968;5.816;2022-07-03T18:20:09;5.85;;;0.95;;
68993;SDS011;56054;50.968;5.816;2022-07-03T18:23:34;3.47;;;1.10;;
68993;SDS011;56054;50.968;5.816;2022-07-03T18:30:53;5.63;;;0.90;;
68993;SDS011;56054;50.968;5.816;2022-07-03T18:38:26;5.78;;;1.08;;
68993;SDS011;56054;50.968;5.816;2022-07-03T18:42:06;2.22;;;0.70;;
68993;SDS011;56054;50.968;5.816;2022-07-03T18:46:06;4.03;;;0.70;;
68993;SDS011;56054;50.968;5.816;2022-07-03T18:49:38;2.75;;;1.23;;
68993;SDS011;56054;50.968;5.816;2022-07-03T18:52:56;5.30;;;1.10;;
68993;SDS011;56054;50.968;5.816;2022-07-03T18:56:41;3.08;;;0.75;;
68993;SDS011;56054;50.968;5.816;2022-07-03T19:00:09;2.90;;;0.57;;
68993;SDS011;56054;50.968;5.816;2022-07-03T19:03:19;4.20;;;0.60;;
68993;SDS011;56054;50.968;5.816;2022-07-03T19:06:46;5.53;;;0.60;;
68993;SDS011;56054;50.968;5.816;2022-07-03T19:10:09;4.13;;;0.73;;
68993;SDS011;56054;50.968;5.816;2022-07-03T19:17:40;4.53;;;0.73;;
68993;SDS011;56054;50.968;5.816;2022-07-03T19:21:01;3.70;;;0.65;;
68993;SDS011;56054;50.968;5.816;2022-07-03T19:24:12;7.15;;;0.82;;
68993;SDS011;56054;50.968;5.816;2022-07-03T19:27:31;1.50;;;0.55;;
68993;SDS011;56054;50.968;5.816;2022-07-03T19:30:39;3.08;;;0.50;;
68993;SDS011;56054;50.968;5.816;2022-07-03T19:37:37;3.17;;;0.60;;
68993;SDS011;56054;50.968;5.816;2022-07-03T19:40:46;1.65;;;0.57;;
68993;SDS011;56054;50.968;5.816;2022-07-03T19:43:54;4.43;;;0.73;;
68993;SDS011;56054;50.968;5.816;2022-07-03T19:47:01;0.85;;;0.35;;
68993;SDS011;56054;50.968;5.816;2022-07-03T19:50:08;2.97;;;0.50;;
68993;SDS011;56054;50.968;5.816;2022-07-03T19:53:25;4.22;;;0.77;;
68993;SDS011;56054;50.968;5.816;2022-07-03T19:56:32;3.20;;;0.43;;
68993;SDS011;56054;50.968;5.816;2022-07-03T19:59:39;4.82;;;0.70;;
68993;SDS011;56054;50.968;5.816;2022-07-03T20:02:54;3.05;;;0.82;;
68993;SDS011;56054;50.968;5.816;2022-07-03T20:06:06;9.38;;;1.13;;
68993;SDS011;56054;50.968;5.816;2022-07-03T20:09:22;1.00;;;0.40;;
68993;SDS011;56054;50.968;5.816;2022-07-03T20:12:29;1.30;;;0.40;;
68993;SDS011;56054;50.968;5.816;2022-07-03T20:16:01;2.05;;;0.57;;
68993;SDS011;56054;50.968;5.816;2022-07-03T20:19:10;2.25;;;0.40;;
68993;SDS011;56054;50.968;5.816;2022-07-03T20:22:17;2.97;;;0.60;;
68993;SDS011;56054;50.968;5.816;2022-07-03T20:25:26;3.47;;;0.47;;
68993;SDS011;56054;50.968;5.816;2022-07-03T20:28:34;3.55;;;0.52;;
68993;SDS011;56054;50.968;5.816;2022-07-03T20:31:46;4.22;;;0.73;;
68993;SDS011;56054;50.968;5.816;2022-07-03T20:35:07;2.88;;;0.50;;
68993;SDS011;56054;50.968;5.816;2022-07-03T20:38:39;2.78;;;0.50;;
68993;SDS011;56054;50.968;5.816;2022-07-03T20:41:47;1.88;;;0.50;;
68993;SDS011;56054;50.968;5.816;2022-07-03T20:44:56;3.28;;;0.73;;
68993;SDS011;56054;50.968;5.816;2022-07-03T20:48:03;4.32;;;0.50;;
68993;SDS011;56054;50.968;5.816;2022-07-03T20:51:11;3.50;;;0.77;;
68993;SDS011;56054;50.968;5.816;2022-07-03T20:54:18;1.77;;;0.60;;
68993;SDS011;56054;50.968;5.816;2022-07-03T20:57:26;1.85;;;0.50;;
68993;SDS011;56054;50.968;5.816;2022-07-03T21:00:33;0.95;;;0.60;;
68993;SDS011;56054;50.968;5.816;2022-07-03T21:03:56;6.40;;;0.68;;
68993;SDS011;56054;50.968;5.816;2022-07-03T21:07:03;2.33;;;0.60;;
68993;SDS011;56054;50.968;5.816;2022-07-03T21:10:35;2.00;;;0.65;;
68993;SDS011;56054;50.968;5.816;2022-07-03T21:13:42;2.88;;;0.47;;
68993;SDS011;56054;50.968;5.816;2022-07-03T21:16:51;4.30;;;1.00;;
68993;SDS011;56054;50.968;5.816;2022-07-03T21:19:59;5.85;;;0.80;;
68993;SDS011;56054;50.968;5.816;2022-07-03T21:23:15;5.00;;;1.77;;
68993;SDS011;56054;50.968;5.816;2022-07-03T21:26:22;4.07;;;1.60;;
68993;SDS011;56054;50.968;5.816;2022-07-03T21:29:52;4.03;;;1.25;;
68993;SDS011;56054;50.968;5.816;2022-07-03T21:33:00;6.43;;;1.90;;
68993;SDS011;56054;50.968;5.816;2022-07-03T21:36:18;3.65;;;1.35;;
68993;SDS011;56054;50.968;5.816;2022-07-03T21:39:26;6.47;;;1.38;;
68993;SDS011;56054;50.968;5.816;2022-07-03T21:42:37;6.40;;;1.50;;
68993;SDS011;56054;50.968;5.816;2022-07-03T21:45:44;5.15;;;1.10;;
68993;SDS011;56054;50.968;5.816;2022-07-03T21:48:56;5.85;;;1.05;;
68993;SDS011;56054;50.968;5.816;2022-07-03T21:52:04;3.60;;;1.00;;
68993;SDS011;56054;50.968;5.816;2022-07-03T21:55:42;4.57;;;1.05;;
68993;SDS011;56054;50.968;5.816;2022-07-03T21:58:49;6.32;;;0.80;;
68993;SDS011;56054;50.968;5.816;2022-07-03T22:02:01;3.67;;;0.65;;
68993;SDS011;56054;50.968;5.816;2022-07-03T22:05:08;3.58;;;0.70;;
68993;SDS011;56054;50.968;5.816;2022-07-03T22:08:16;3.88;;;0.70;;
68993;SDS011;56054;50.968;5.816;2022-07-03T22:11:29;3.13;;;0.73;;
68993;SDS011;56054;50.968;5.816;2022-07-03T22:14:36;4.93;;;0.80;;
68993;SDS011;56054;50.968;5.816;2022-07-03T22:17:50;6.10;;;1.20;;